Time;durP1;ratioP1;P1;durP2;ratioP2;P2;SDS_P1;SDS_P2;PMS_P1;PMS_P2;Temp;Humidity;BMP_temperature;BMP_pressure;BME280_temperature;BME280_humidity;BME280_pressure;Samples;Min_cycle;Max_cycle;Signal;HPM_P1;HPM_P2
2021/01/02 00:00:31;;;;;;;146.72;64.82;;;;;;;1.37;77.05;99984.53;2147172;81;33962;-61
2021/01/02 00:03:53;;;;;;;162.37;64.50;;;;;;;1.36;77.04;99995.52;2187050;80;28266;-61
2021/01/02 00:07:12;;;;;;;177.53;67.87;;;;;;;1.39;77.09;99997.25;2176400;81;28137;-61
2021/01/02 00:10:20;;;;;;;172.82;69.17;;;;;;;1.41;77.17;100002.50;2216426;80;28729;-61
2021/01/02 00:13:33;;;;;;;164.85;63.25;;;;;;;1.37;77.03;99997.73;2186412;80;31141;-61
2021/01/02 00:17:10;;;;;;;151.25;62.23;;;;;;;1.33;76.86;100003.94;2095912;84;33114;-61
2021/01/02 00:20:50;;;;;;;;;;;;;;;1.29;77.11;100005.77;2142816;83;28862;-61
2021/01/02 00:24:07;;;;;;;161.97;63.60;;;;;;;1.28;77.21;100001.39;2140250;83;27718;-61
2021/01/02 00:27:14;;;;;;;161.03;63.25;;;;;;;1.25;77.29;99996.16;2133736;83;28851;-61
2021/01/02 00:30:38;;;;;;;162.80;65.10;;;;;;;1.25;77.26;99997.91;2174607;81;31499;-61
2021/01/02 00:34:22;;;;;;;158.72;67.47;;;;;;;1.25;77.31;100003.18;2175487;81;33941;-61
2021/01/02 00:37:45;;;;;;;166.97;62.50;;;;;;;1.35;77.42;100004.33;2248683;78;36785;-62
2021/01/02 00:40:50;;;;;;;173.50;73.10;;;;;;;1.33;77.32;100002.16;2228800;79;27700;-62
2021/01/02 00:43:54;;;;;;;159.20;64.55;;;;;;;1.33;77.21;100012.72;2228854;79;28884;-62
2021/01/02 00:46:59;;;;;;;158.70;67.03;;;;;;;1.32;77.33;100008.36;2228964;79;31129;-62
2021/01/02 00:50:03;;;;;;;153.75;62.93;;;;;;;1.31;77.15;100013.22;2228704;79;33108;-63
2021/01/02 00:53:56;;;;;;;163.37;65.00;;;;;;;1.32;77.20;100017.60;2228660;79;28698;-63
2021/01/02 00:57:04;;;;;;;153.35;59.53;;;;;;;1.32;77.29;100014.08;2228693;79;27735;-63
2021/01/02 01:00:08;;;;;;;140.90;57.83;;;;;;;1.28;77.26;100015.90;2225799;79;28606;-63
2021/01/02 01:03:46;;;;;;;149.10;60.40;;;;;;;1.29;77.30;100022.92;2228993;79;31252;-62
2021/01/02 01:06:53;;;;;;;139.35;59.60;;;;;;;1.31;77.37;100025.09;2228690;79;33222;-63
2021/01/02 01:09:59;;;;;;;128.60;56.48;;;;;;;1.35;77.20;100033.83;2195932;79;28934;-64
2021/01/02 01:13:22;;;;;;;135.63;57.10;;;;;;;1.35;77.20;100035.14;2228785;79;27764;-65
2021/01/02 01:16:26;;;;;;;136.25;55.55;;;;;;;1.35;77.31;100028.08;2228648;79;29787;-63
2021/01/02 01:19:29;;;;;;;128.85;56.53;;;;;;;1.42;77.33;100036.77;2228660;79;30391;-63
2021/01/02 01:22:35;;;;;;;131.70;55.73;;;;;;;1.41;77.11;100035.02;2228526;79;33100;-63
2021/01/02 01:26:04;;;;;;;136.03;58.00;;;;;;;1.39;76.97;100044.77;2228617;79;28826;-65
2021/01/02 01:29:06;;;;;;;150.60;61.60;;;;;;;1.35;76.93;100054.94;2165557;81;27771;-64
2021/01/02 01:32:10;;;;;;;149.90;62.30;;;;;;;1.30;76.98;100060.30;2189445;81;29384;-63
2021/01/02 01:35:13;;;;;;;131.70;58.28;;;;;;;1.27;76.95;100055.48;2188148;81;32194;-64
2021/01/02 01:38:16;;;;;;;133.80;59.27;;;;;;;1.23;76.88;100061.27;2175767;81;33175;-63
2021/01/02 01:41:34;;;;;;;135.30;58.05;;;;;;;1.25;77.03;100062.55;2175741;81;29821;-65
2021/01/02 01:44:58;;;;;;;143.78;62.38;;;;;;;1.30;77.12;100056.77;2175768;81;27802;-63
2021/01/02 01:48:16;;;;;;;133.97;60.55;;;;;;;1.31;77.24;100060.72;2175355;81;32576;-65
2021/01/02 01:51:59;;;;;;;142.85;60.80;;;;;;;1.35;77.15;100069.45;2173537;81;32046;-65
2021/01/02 01:55:14;;;;;;;139.37;61.27;;;;;;;1.41;77.20;100060.09;2248374;77;27584;-65
2021/01/02 01:58:17;;;;;;;141.27;64.27;;;;;;;1.37;77.16;100062.39;2228738;79;28039;-65
2021/01/02 02:01:25;;;;;;;127.40;56.20;;;;;;;1.35;77.02;100068.98;2228404;79;29409;-65
2021/01/02 02:04:52;;;;;;;128.60;57.13;;;;;;;1.33;77.02;100068.60;2228374;79;32419;-65
2021/01/02 02:08:02;;;;;;;128.70;55.23;;;;;;;1.31;77.00;100076.55;2228473;79;34469;-65
2021/01/02 02:11:05;;;;;;;127.02;56.08;;;;;;;1.27;76.76;100070.00;2228671;79;29068;-63
2021/01/02 02:14:41;;;;;;;126.47;57.25;;;;;;;1.23;76.95;100077.09;2228574;79;27624;-63
2021/01/02 02:17:45;;;;;;;127.40;58.10;;;;;;;1.25;77.08;100073.11;2228302;79;28904;-64
2021/01/02 02:20:55;;;;;;;135.48;60.60;;;;;;;1.25;77.15;100064.76;2228502;79;27693;-65
2021/01/02 02:24:01;;;;;;;142.60;60.92;;;;;;;1.28;77.19;100069.11;2228456;79;34029;-65
2021/01/02 02:27:05;;;;;;;131.95;58.40;;;;;;;1.25;76.98;100062.12;2228576;79;28865;-64
2021/01/02 02:30:16;;;;;;;137.95;58.70;;;;;;;1.23;77.03;100059.09;2228702;79;27627;-64
2021/01/02 02:33:21;;;;;;;124.47;57.43;;;;;;;1.20;77.10;100056.03;2228470;79;28875;-65
2021/01/02 02:36:28;;;;;;;137.32;57.03;;;;;;;1.19;77.06;100055.61;2228567;79;31127;-65
2021/01/02 02:39:30;;;;;;;130.57;58.02;;;;;;;1.19;77.02;100054.28;2228447;79;33223;-64
2021/01/02 02:42:37;;;;;;;148.05;60.03;;;;;;;1.19;77.05;100058.24;2228434;79;28867;-64
2021/01/02 02:45:39;;;;;;;133.60;58.85;;;;;;;1.20;77.07;100056.92;2228703;79;27653;-65
2021/01/02 02:48:44;;;;;;;125.25;57.08;;;;;;;1.18;76.93;100055.18;2228542;79;29761;-63
2021/01/02 02:51:55;;;;;;;141.68;60.03;;;;;;;1.17;76.99;100064.88;2228652;79;31130;-63
2021/01/02 02:54:59;;;;;;;129.40;57.60;;;;;;;1.15;76.96;100064.02;2219765;79;33119;-63
2021/01/02 02:58:03;;;;;;;105.78;44.93;;;;;;;1.15;77.02;100068.44;2218084;80;29826;-64
2021/01/02 03:01:06;;;;;;;124.53;55.38;;;;;;;1.10;76.87;100071.13;2218058;80;27597;-64
2021/01/02 03:04:08;;;;;;;116.25;53.83;;;;;;;1.08;76.95;100070.73;2217727;80;28872;-63
2021/01/02 03:07:11;;;;;;;127.60;57.85;;;;;;;1.06;76.94;100068.98;2217104;80;31454;-63
2021/01/02 03:10:17;;;;;;;128.45;55.25;;;;;;;1.05;76.86;100067.23;2217111;80;33193;-63
2021/01/02 03:13:20;;;;;;;125.78;57.38;;;;;;;1.03;76.80;100066.38;2217274;80;28872;-63
2021/01/02 03:16:22;;;;;;;135.57;55.83;;;;;;;1.01;76.89;100072.13;2217203;80;27619;-64
2021/01/02 03:19:30;;;;;;;131.72;57.75;;;;;;;1.03;76.95;100065.53;2217251;80;30237;-64
2021/01/02 03:22:33;;;;;;;117.82;54.15;;;;;;;1.01;76.84;100065.99;2216564;80;31142;-64
2021/01/02 03:25:36;;;;;;;123.22;53.45;;;;;;;0.99;76.86;100066.45;2217023;80;35543;-64
2021/01/02 03:28:39;;;;;;;124.30;50.92;;;;;;;0.96;76.90;100066.06;2217239;80;28857;-63
2021/01/02 03:31:41;;;;;;;128.53;54.80;;;;;;;0.94;76.77;100067.84;2217184;80;27733;-63
2021/01/02 03:34:44;;;;;;;122.02;56.05;;;;;;;0.89;76.69;100062.64;2217252;80;28889;-63
2021/01/02 03:37:48;;;;;;;121.22;53.85;;;;;;;0.82;76.63;100060.11;2217086;80;31578;-63
2021/01/02 03:40:50;;;;;;;134.97;54.58;;;;;;;0.77;76.74;100060.61;2217019;80;33123;-64
2021/01/02 03:43:54;;;;;;;131.10;54.38;;;;;;;0.72;76.76;100057.58;2217125;80;28866;-64
2021/01/02 03:46:56;;;;;;;128.78;56.00;;;;;;;0.61;76.57;100059.49;2217297;80;27732;-64
2021/01/02 03:49:59;;;;;;;125.10;52.75;;;;;;;0.53;76.77;100066.17;2217243;80;28854;-63
2021/01/02 03:53:02;;;;;;;122.90;52.80;;;;;;;0.48;76.75;100064.49;2217052;80;32392;-65
2021/01/02 03:56:04;;;;;;;129.45;56.40;;;;;;;0.40;76.76;100064.59;2217082;80;33213;-63
2021/01/02 03:59:07;;;;;;;134.67;59.18;;;;;;;0.30;76.76;100059.41;2217117;80;28865;-63
2021/01/02 04:02:09;;;;;;;144.13;57.13;;;;;;;0.28;76.99;100067.77;2217147;80;27678;-63
2021/01/02 04:05:13;;;;;;;122.13;53.33;;;;;;;0.29;77.10;100060.29;2217075;80;31171;-63
2021/01/02 04:08:16;;;;;;;131.23;56.93;;;;;;;0.28;77.16;100063.81;2217318;80;31135;-63
2021/01/02 04:11:18;;;;;;;155.80;52.95;;;;;;;0.27;77.14;100063.38;2217044;80;33116;-64
2021/01/02 04:14:20;;;;;;;120.00;49.95;;;;;;;0.20;77.05;100060.41;2217045;80;28879;-64
2021/01/02 04:17:23;;;;;;;185.78;49.13;;;;;;;0.07;76.92;100062.30;2217161;80;28238;-66
2021/01/02 04:20:27;;;;;;;137.12;47.70;;;;;;;-0.02;76.96;100057.13;2217087;80;28808;-65
2021/01/02 04:23:29;;;;;;;115.82;46.13;;;;;;;-0.18;76.98;100049.81;2217044;80;32109;-63
2021/01/02 04:26:32;;;;;;;199.65;97.02;;;;;;;-0.26;77.15;100043.77;2217043;80;33089;-64
2021/01/02 04:29:35;;;;;;;110.10;47.40;;;;;;;-0.37;77.15;100050.44;2217028;80;28914;-63
2021/01/02 04:32:37;;;;;;;130.45;48.15;;;;;;;-0.42;77.33;100057.49;2217147;80;27645;-64
2021/01/02 04:35:39;;;;;;;110.70;49.53;;;;;;;-0.42;77.58;100059.70;2216976;80;28798;-65
2021/01/02 04:38:43;;;;;;;125.58;50.28;;;;;;;-0.43;77.65;100063.22;2217170;80;30833;-66
2021/01/02 04:41:46;;;;;;;119.85;49.77;;;;;;;-0.39;77.93;100068.86;2217190;80;33172;-64
2021/01/02 04:44:50;;;;;;;118.13;50.33;;;;;;;-0.36;77.80;100070.16;2217217;80;28853;-66
2021/01/02 04:47:53;;;;;;;132.35;54.03;;;;;;;-0.37;77.66;100067.55;2213139;80;27735;-65
2021/01/02 04:50:55;;;;;;;114.85;50.98;;;;;;;-0.37;77.72;100074.98;2217708;80;28872;-65
2021/01/02 04:54:05;;;;;;;114.28;48.38;;;;;;;-0.35;77.87;100078.48;2219129;80;32502;-63
2021/01/02 04:57:10;;;;;;;157.67;53.83;;;;;;;-0.32;77.78;100069.67;2224024;80;34331;-63
2021/01/02 05:00:15;;;;;;;107.27;46.55;;;;;;;-0.31;77.69;100071.42;2223762;80;28856;-64
2021/01/02 05:03:17;;;;;;;126.40;50.17;;;;;;;-0.36;77.53;100068.84;2223252;80;27612;-65
2021/01/02 05:06:22;;;;;;;102.82;46.53;;;;;;;-0.39;77.49;100075.44;2222854;80;29864;-64
2021/01/02 05:09:24;;;;;;;110.40;49.70;;;;;;;-0.43;77.65;100078.11;2222501;80;31128;-65
2021/01/02 05:12:32;;;;;;;106.25;47.15;;;;;;;-0.41;77.81;100079.84;2222185;80;33043;-64
2021/01/02 05:15:35;;;;;;;93.95;43.70;;;;;;;-0.36;78.02;100086.41;2222326;80;28973;-65
2021/01/02 05:19:01;;;;;;;92.25;43.35;;;;;;;-0.28;78.04;100092.92;2222251;80;27643;-64
2021/01/02 05:22:03;;;;;;;85.87;41.95;;;;;;;-0.22;77.85;100092.84;2222414;80;27928;-63
2021/01/02 05:25:21;;;;;;;82.90;40.50;;;;;;;-0.19;77.74;100095.03;2222204;80;31522;-64
2021/01/02 05:28:23;;;;;;;89.10;41.92;;;;;;;-0.13;77.88;100091.89;2222083;80;33191;-63
2021/01/02 05:31:27;;;;;;;84.62;39.03;;;;;;;-0.10;77.76;100095.39;2222235;80;29267;-63
2021/01/02 05:34:32;;;;;;;100.30;44.60;;;;;;;-0.08;77.57;100101.48;2222330;80;27808;-64
2021/01/02 05:37:34;;;;;;;91.57;41.65;;;;;;;-0.11;77.60;100108.13;2190727;80;29065;-64
2021/01/02 05:40:41;;;;;;;84.20;41.58;;;;;;;-0.08;77.71;100119.92;2222128;80;31797;-64
2021/01/02 05:43:43;;;;;;;86.87;39.98;;;;;;;-0.06;77.55;100114.20;2221695;80;34450;-65
2021/01/02 05:46:53;;;;;;;91.80;44.15;;;;;;;-0.07;77.39;100112.45;2222216;80;28860;-64
2021/01/02 05:50:08;;;;;;;92.67;41.10;;;;;;;0.00;77.51;100114.62;2252345;77;28117;-61
2021/01/02 05:53:18;;;;;;;90.42;40.73;;;;;;;-0.05;77.46;100116.41;2217980;80;27613;-62
2021/01/02 05:56:32;;;;;;;87.17;41.90;;;;;;;-0.02;77.27;100115.92;2252453;77;29469;-63
2021/01/02 05:59:38;;;;;;;79.72;37.53;;;;;;;-0.14;77.09;100123.94;2187020;80;28054;-63
2021/01/02 06:02:41;;;;;;;78.17;38.60;;;;;;;-0.19;77.01;100122.67;2217685;80;28800;-62
2021/01/02 06:06:01;;;;;;;84.28;39.30;;;;;;;-0.18;77.15;100123.53;2217661;80;31307;-62
2021/01/02 06:09:04;;;;;;;89.22;44.03;;;;;;;-0.20;77.17;100126.19;2217585;80;33118;-64
2021/01/02 06:12:09;;;;;;;102.42;46.45;;;;;;;-0.19;77.24;100129.25;2217617;80;29490;-63
2021/01/02 06:15:14;;;;;;;95.50;45.33;;;;;;;-0.18;77.08;100132.75;2217854;80;28080;-63
2021/01/02 06:18:17;;;;;;;94.65;45.17;;;;;;;-0.21;77.08;100136.28;2217626;80;28799;-64
2021/01/02 06:21:21;;;;;;;101.82;48.78;;;;;;;-0.20;77.16;100139.36;2217661;80;31681;-64
2021/01/02 06:24:23;;;;;;;93.33;46.28;;;;;;;-0.20;77.18;100141.98;2217650;80;34009;-66
2021/01/02 06:27:27;;;;;;;97.40;46.28;;;;;;;-0.20;77.19;100141.98;2217663;80;28935;-66
2021/01/02 06:30:30;;;;;;;92.50;45.28;;;;;;;-0.20;77.15;100144.62;2217761;80;27695;-65
2021/01/02 06:33:32;;;;;;;83.90;41.85;;;;;;;-0.19;77.15;100152.95;2217575;80;30072;-63
2021/01/02 06:36:37;;;;;;;86.40;41.60;;;;;;;-0.23;77.04;100149.90;2217411;80;31568;-64
2021/01/02 06:39:41;;;;;;;86.40;41.23;;;;;;;-0.23;77.03;100156.48;2217483;80;28191;-64
2021/01/02 06:43:00;;;;;;;88.37;40.73;;;;;;;-0.21;77.05;100156.03;2217308;80;28870;-64
2021/01/02 06:46:24;;;;;;;88.30;42.88;;;;;;;-0.21;76.97;100158.66;2217395;80;27999;-64
2021/01/02 06:49:35;;;;;;;90.03;41.90;;;;;;;-0.20;77.03;100159.52;2099253;84;29265;-63
2021/01/02 06:52:37;;;;;;;83.92;40.88;;;;;;;-0.18;76.97;100169.18;2099239;84;32558;-63
2021/01/02 06:55:41;;;;;;;108.92;47.23;;;;;;;-0.22;76.82;100171.39;2099263;84;33541;-66
2021/01/02 06:58:52;;;;;;;130.37;57.27;;;;;;;-0.27;76.51;100173.63;2099452;84;28867;-63
2021/01/02 07:01:54;;;;;;;150.07;58.78;;;;;;;-0.34;76.54;100173.67;2099390;84;28141;-63
2021/01/02 07:04:57;;;;;;;146.18;55.10;;;;;;;-0.38;76.77;100169.30;2099240;84;28820;-63
2021/01/02 07:08:00;;;;;;;116.05;52.00;;;;;;;-0.40;76.65;100168.89;2098702;84;32128;-63
2021/01/02 07:11:36;;;;;;;107.37;49.00;;;;;;;-0.49;76.47;100174.62;2098599;84;33076;-63
2021/01/02 07:14:40;;;;;;;109.10;49.53;;;;;;;-0.53;76.53;100172.92;2098719;84;30231;-63
2021/01/02 07:17:42;;;;;;;111.52;51.53;;;;;;;-0.58;76.46;100180.42;2098642;84;27680;-63
2021/01/02 07:20:45;;;;;;;113.32;49.80;;;;;;;-0.69;76.28;100181.34;2098493;84;29692;-64
2021/01/02 07:23:48;;;;;;;105.72;48.78;;;;;;;-0.75;76.36;100191.02;2098580;84;31162;-64
2021/01/02 07:27:04;;;;;;;107.95;50.80;;;;;;;-0.80;76.50;100190.59;2098457;84;34122;-63
2021/01/02 07:30:12;;;;;;;117.15;52.50;;;;;;;-0.78;76.63;100194.55;2098609;84;29257;-64
2021/01/02 07:33:15;;;;;;;115.32;53.55;;;;;;;-0.72;76.76;100193.64;2098753;84;27695;-64
2021/01/02 07:36:20;;;;;;;109.25;49.38;;;;;;;-0.66;76.86;100188.36;2098589;84;28810;-65
2021/01/02 07:39:22;;;;;;;91.97;47.08;;;;;;;-0.60;76.87;100190.94;2098556;84;31173;-64
2021/01/02 07:42:29;;;;;;;115.05;54.98;;;;;;;-0.58;76.57;100194.44;2098507;84;33549;-66
2021/01/02 07:45:32;;;;;;;105.40;50.58;;;;;;;-0.58;76.58;100190.94;2098621;84;29809;-64
2021/01/02 07:48:35;;;;;;;124.33;55.78;;;;;;;-0.59;76.66;100191.37;2088781;84;27771;-64
2021/01/02 07:51:38;;;;;;;97.78;47.78;;;;;;;-0.60;76.60;100195.34;2104473;84;28838;-64
2021/01/02 07:54:41;;;;;;;110.35;51.13;;;;;;;-0.58;76.66;100195.75;2104349;84;31232;-64
2021/01/02 07:57:45;;;;;;;96.57;46.58;;;;;;;-0.55;76.67;100195.73;2104516;84;34042;-65
2021/01/02 08:00:48;;;;;;;76.90;35.65;;;;;;;-0.52;76.71;100198.36;2073642;84;28861;-65
2021/01/02 08:03:51;;;;;;;96.40;46.60;;;;;;;-0.48;76.82;100201.38;2104517;84;27734;-65
2021/01/02 08:07:05;;;;;;;117.03;55.28;;;;;;;-0.38;77.01;100206.14;2104582;84;29696;-64
2021/01/02 08:10:12;;;;;;;116.47;54.18;;;;;;;-0.27;77.03;100207.86;2104481;84;31805;-64
2021/01/02 08:13:17;;;;;;;101.18;50.08;;;;;;;-0.18;76.83;100202.52;2104478;84;33208;-64
2021/01/02 08:16:19;;;;;;;128.57;59.40;;;;;;;-0.11;76.64;100208.61;2104606;84;29897;-65
2021/01/02 08:19:21;;;;;;;118.13;55.78;;;;;;;-0.09;76.49;100210.79;2104466;84;27677;-64
2021/01/02 08:22:37;;;;;;;118.02;56.53;;;;;;;-0.06;76.71;100201.09;2104436;84;29784;-63
2021/01/02 08:28:57;;;;;;;107.93;54.67;;;;;;;0.19;76.84;100211.45;2248773;78;27677;-63
2021/01/02 08:32:10;;;;;;;104.32;53.60;;;;;;;0.17;76.56;100215.00;2195641;79;27666;-62
2021/01/02 08:35:23;;;;;;;99.67;50.35;;;;;;;0.20;76.52;100214.52;2228920;79;28829;-63
2021/01/02 08:38:28;;;;;;;112.72;55.40;;;;;;;0.24;76.58;100219.31;2228700;79;31201;-63
2021/01/02 08:41:30;;;;;;;101.35;51.90;;;;;;;0.29;76.63;100221.47;2195857;79;34324;-63
2021/01/02 08:44:36;;;;;;;113.30;54.93;;;;;;;0.29;76.44;100226.28;2228736;79;28534;-62
2021/01/02 08:47:40;;;;;;;108.07;52.95;;;;;;;0.30;76.49;100229.80;2228726;79;27624;-63
2021/01/02 08:50:42;;;;;;;122.22;59.73;;;;;;;0.32;76.52;100234.63;2228754;79;28889;-62
2021/01/02 08:53:45;;;;;;;118.53;57.00;;;;;;;0.32;76.35;100253.50;2228805;79;31142;-63
2021/01/02 08:56:48;;;;;;;129.25;59.80;;;;;;;0.35;76.50;100254.80;2228684;79;32954;-63
2021/01/02 08:59:50;;;;;;;143.32;62.88;;;;;;;0.40;76.55;100250.37;2228670;79;28863;-63
2021/01/02 09:03:04;;;;;;;120.20;58.58;;;;;;;0.38;76.18;100255.63;2228865;79;27656;-63
2021/01/02 09:06:22;;;;;;;122.00;60.20;;;;;;;0.37;76.37;100250.39;2228658;79;28830;-63
2021/01/02 09:09:24;;;;;;;118.93;57.83;;;;;;;0.37;76.23;100243.34;2228706;79;31147;-62
2021/01/02 09:12:27;;;;;;;122.47;61.18;;;;;;;0.31;75.80;100242.09;2228649;79;33960;-63
2021/01/02 09:15:50;;;;;;;132.87;68.78;;;;;;;0.25;76.06;100243.45;2228664;79;28845;-63
2021/01/02 09:18:53;;;;;;;144.55;70.52;;;;;;;0.26;76.28;100235.98;2228717;79;27690;-64
2021/01/02 09:21:58;;;;;;;144.87;70.28;;;;;;;0.31;76.47;100239.46;2228636;79;29252;-64
2021/01/02 09:25:14;;;;;;;143.65;72.35;;;;;;;0.30;76.22;100232.44;2228664;79;31567;-63
2021/01/02 09:31:35;;;;;;;126.27;60.07;;;;;;;0.29;76.39;100234.19;2248717;78;33005;-63
2021/01/02 09:34:38;;;;;;;125.25;60.75;;;;;;;0.25;76.41;100233.77;2228917;79;27701;-63
2021/01/02 09:37:42;;;;;;;115.62;55.75;;;;;;;0.28;76.53;100239.02;2228647;79;28824;-64
2021/01/02 09:40:45;;;;;;;112.30;55.40;;;;;;;0.34;76.62;100240.73;2224210;79;31215;-63
2021/01/02 09:43:48;;;;;;;110.42;55.17;;;;;;;0.42;76.75;100253.83;2228476;79;33636;-63
2021/01/02 09:46:51;;;;;;;117.57;58.10;;;;;;;0.56;76.88;100261.63;2228648;79;28562;-62
2021/01/02 09:49:54;;;;;;;149.95;76.53;;;;;;;0.67;76.95;100266.34;2228746;79;27717;-62
2021/01/02 09:52:57;;;;;;;155.63;78.87;;;;;;;0.79;76.94;100269.77;2228721;79;29798;-62
2021/01/02 09:55:59;;;;;;;159.80;79.75;;;;;;;0.91;77.00;100263.05;2228623;79;31581;-62
2021/01/02 09:59:02;;;;;;;150.07;74.40;;;;;;;1.03;76.96;100270.83;2228662;79;34051;-62
2021/01/02 10:02:05;;;;;;;153.23;73.07;;;;;;;1.14;76.76;100277.77;2228652;79;28940;-62
2021/01/02 10:05:09;;;;;;;163.70;75.32;;;;;;;1.21;76.75;100283.38;2228861;79;27577;-61
2021/01/02 10:08:25;;;;;;;143.90;72.03;;;;;;;1.32;76.78;100281.94;2228858;79;29738;-62
2021/01/02 10:11:44;;;;;;;119.33;61.10;;;;;;;1.45;76.82;100291.45;2228659;79;31548;-62
2021/01/02 10:14:49;;;;;;;84.63;43.10;;;;;;;1.59;76.71;100289.97;2228858;79;28262;-64
2021/01/02 10:17:51;;;;;;;113.05;57.45;;;;;;;1.67;76.55;100284.13;2228644;79;28842;-63
2021/01/02 10:20:54;;;;;;;119.55;56.73;;;;;;;1.80;76.59;100281.34;2228788;79;27695;-62
2021/01/02 10:23:58;;;;;;;112.08;56.40;;;;;;;1.89;76.37;100267.13;2228840;79;28762;-62
2021/01/02 10:27:01;;;;;;;106.55;53.98;;;;;;;1.97;76.17;100266.12;2228909;79;31152;-63
2021/01/02 10:30:08;;;;;;;168.17;79.07;;;;;;;2.01;75.72;100257.70;2224852;79;34072;-63
2021/01/02 10:33:11;;;;;;;129.00;63.45;;;;;;;2.04;75.72;100252.80;2218435;80;29707;-63
2021/01/02 10:36:14;;;;;;;126.58;62.70;;;;;;;2.08;75.77;100247.91;2218625;80;27650;-63
2021/01/02 10:39:17;;;;;;;109.67;53.25;;;;;;;2.13;75.53;100241.64;2218260;80;30214;-63
2021/01/02 10:42:29;;;;;;;109.72;54.58;;;;;;;2.09;75.01;100224.09;2217800;80;32205;-63
2021/01/02 10:45:32;;;;;;;103.40;54.90;;;;;;;2.08;75.23;100218.84;2217712;80;33127;-64
2021/01/02 10:48:35;;;;;;;118.77;57.88;;;;;;;2.10;75.34;100215.73;2217596;80;29779;-63
2021/01/02 10:51:38;;;;;;;121.77;62.58;;;;;;;2.17;75.19;100212.53;2217579;80;27637;-63
2021/01/02 10:54:43;;;;;;;159.27;72.70;;;;;;;2.22;75.29;100214.66;2217544;80;28821;-63
2021/01/02 10:57:47;;;;;;;124.22;62.38;;;;;;;2.24;75.21;100209.77;2217448;80;31192;-63
2021/01/02 11:00:50;;;;;;;124.35;64.37;;;;;;;2.27;74.88;100206.18;2217341;80;33560;-63
2021/01/02 11:03:53;;;;;;;197.78;89.40;;;;;;;2.17;74.53;100204.61;2217274;80;28869;-64
2021/01/02 11:06:56;;;;;;;145.72;73.17;;;;;;;2.09;74.90;100205.59;2217476;80;27732;-63
2021/01/02 11:10:01;;;;;;;122.80;63.55;;;;;;;2.05;74.68;100197.74;2217234;80;28823;-64
2021/01/02 11:13:03;;;;;;;123.03;63.27;;;;;;;1.99;74.73;100204.47;2217489;80;30997;-63
2021/01/02 11:16:06;;;;;;;166.22;80.10;;;;;;;1.93;74.66;100198.80;2217218;80;33357;-64
2021/01/02 11:19:24;;;;;;;189.90;87.15;;;;;;;1.89;74.76;100204.59;2217357;80;28908;-64
2021/01/02 11:22:27;;;;;;;238.87;100.90;;;;;;;1.83;74.81;100194.11;2217346;80;27726;-63
2021/01/02 11:25:29;;;;;;;241.73;103.10;;;;;;;1.80;74.83;100191.08;2217227;80;28806;-64
2021/01/02 11:28:31;;;;;;;219.47;98.72;;;;;;;1.85;75.24;100192.78;2217362;80;32382;-63
2021/01/02 11:31:36;;;;;;;196.25;92.67;;;;;;;1.91;75.42;100193.56;2216831;80;34079;-64
2021/01/02 11:34:41;;;;;;;240.87;109.12;;;;;;;1.99;75.40;100188.61;2217019;80;29727;-64
2021/01/02 11:37:45;;;;;;;231.00;102.95;;;;;;;1.99;75.14;100184.66;2216367;80;27738;-64
2021/01/02 11:40:51;;;;;;;187.45;90.83;;;;;;;1.98;75.20;100171.88;2185070;80;28925;-64
2021/01/02 11:43:55;;;;;;;169.72;81.50;;;;;;;2.01;75.39;100163.91;2216813;80;31593;-63
2021/01/02 11:47:00;;;;;;;168.97;81.12;;;;;;;2.05;75.45;100160.32;2216948;80;33092;-64
2021/01/02 11:50:04;;;;;;;159.30;75.75;;;;;;;2.08;75.40;100157.60;2217262;80;28856;-64
2021/01/02 11:53:08;;;;;;;182.57;83.70;;;;;;;2.11;75.40;100162.84;2217170;80;28079;-63
2021/01/02 11:56:12;;;;;;;155.60;74.22;;;;;;;2.16;75.60;100174.64;2217267;80;28897;-64
2021/01/02 11:59:15;;;;;;;153.77;76.17;;;;;;;2.22;75.47;100169.27;2217445;80;31363;-63
2021/01/02 12:02:17;;;;;;;141.55;70.55;;;;;;;2.19;75.08;100169.31;2217043;80;33190;-63
2021/01/02 12:05:22;;;;;;;144.93;75.12;;;;;;;2.13;74.98;100165.47;2217223;80;28865;-63
2021/01/02 12:08:25;;;;;;;160.55;84.42;;;;;;;2.13;75.29;100158.41;2217407;80;27749;-64
2021/01/02 12:11:36;;;;;;;125.27;63.73;;;;;;;2.20;75.46;100167.09;2217106;80;29765;-63
2021/01/02 12:14:38;;;;;;;126.80;63.65;;;;;;;2.24;75.37;100170.55;2217105;80;31135;-63
2021/01/02 12:17:40;;;;;;;110.80;57.15;;;;;;;2.27;75.26;100174.47;2217097;80;33126;-63
2021/01/02 12:20:43;;;;;;;120.33;59.50;;;;;;;2.27;75.11;100175.35;2217188;80;29813;-64
2021/01/02 12:23:46;;;;;;;116.53;60.63;;;;;;;2.31;75.26;100172.66;2217129;80;27604;-63
2021/01/02 12:26:53;;;;;;;247.35;121.50;;;;;;;2.35;75.34;100176.97;2217046;80;30180;-63
2021/01/02 12:29:55;;;;;;;104.43;53.40;;;;;;;2.42;75.32;100179.48;2216923;80;31148;-63
2021/01/02 12:32:58;;;;;;;99.72;53.98;;;;;;;2.48;75.27;100188.20;2217010;80;33182;-64
2021/01/02 12:36:01;;;;;;;101.82;51.37;;;;;;;2.52;75.10;100188.58;2217168;80;28869;-64
2021/01/02 12:39:05;;;;;;;101.05;52.08;;;;;;;2.48;74.92;100185.56;2217130;80;27705;-63
2021/01/02 12:42:09;;;;;;;107.52;53.10;;;;;;;2.48;75.04;100189.09;2217074;80;28880;-63
2021/01/02 12:45:14;;;;;;;107.63;57.47;;;;;;;2.48;74.71;100182.92;2217291;80;32088;-65
2021/01/02 12:48:17;;;;;;;107.73;58.53;;;;;;;2.46;74.94;100182.95;2217268;80;33166;-64
2021/01/02 12:51:21;;;;;;;108.40;63.30;;;;;;;2.51;75.10;100188.16;2216991;80;28859;-63
2021/01/02 12:54:24;;;;;;;;;;;;;;;2.55;75.12;100187.20;2219956;80;27946;-63
2021/01/02 12:57:27;;;;;;;122.87;60.78;;;;;;;2.58;75.10;100188.45;2217094;80;28817;-63
2021/01/02 13:00:30;;;;;;;132.27;64.85;;;;;;;2.61;75.13;100192.83;2217047;80;31614;-64
2021/01/02 13:03:33;;;;;;;116.65;61.13;;;;;;;2.65;75.11;100196.70;2217068;80;34057;-64
2021/01/02 13:06:36;;;;;;;116.35;59.90;;;;;;;2.67;74.86;100192.70;2217155;80;29712;-63
2021/01/02 13:09:39;;;;;;;112.30;60.08;;;;;;;2.68;74.85;100199.73;2186334;80;27666;-63
2021/01/02 13:12:42;;;;;;;111.22;57.53;;;;;;;2.66;74.71;100196.23;2217105;80;30144;-64
2021/01/02 13:15:48;;;;;;;110.85;56.73;;;;;;;2.63;74.70;100191.03;2217105;80;31146;-64
2021/01/02 13:18:57;;;;;;;112.52;56.80;;;;;;;2.61;74.76;100192.36;2184483;80;28179;-63
2021/01/02 13:22:05;;;;;;;114.10;56.30;;;;;;;2.63;74.85;100193.68;2217135;80;29805;-63
2021/01/02 13:25:09;;;;;;;98.22;51.42;;;;;;;2.62;74.60;100194.58;2217181;80;27717;-64
2021/01/02 13:28:11;;;;;;;97.45;53.02;;;;;;;2.58;74.35;100195.95;2217085;80;28817;-62
2021/01/02 13:31:16;;;;;;;99.83;52.35;;;;;;;2.55;74.29;100189.39;2217009;80;32113;-63
2021/01/02 13:34:19;;;;;;;103.73;57.00;;;;;;;2.54;74.33;100192.08;2216361;80;33190;-64
2021/01/02 13:37:22;;;;;;;104.58;55.78;;;;;;;2.55;74.61;100186.75;2217055;80;29878;-63
2021/01/02 13:40:25;;;;;;;105.92;54.65;;;;;;;2.58;74.58;100195.95;2217026;80;27666;-63
2021/01/02 13:43:28;;;;;;;121.90;59.75;;;;;;;2.62;74.62;100194.58;2217056;80;29690;-64
2021/01/02 13:46:31;;;;;;;119.77;62.80;;;;;;;2.62;74.49;100195.90;2217047;80;32165;-63
2021/01/02 13:49:35;;;;;;;115.60;61.20;;;;;;;2.62;74.69;100203.83;2216984;80;32863;-63
2021/01/02 13:52:39;;;;;;;117.57;60.28;;;;;;;2.62;74.48;100201.19;2217133;80;29720;-63
2021/01/02 13:55:41;;;;;;;122.98;66.20;;;;;;;2.54;74.36;100207.48;2216973;80;27698;-63
2021/01/02 13:58:48;;;;;;;139.80;76.75;;;;;;;2.49;74.39;100200.53;2217009;80;28817;-63
2021/01/02 14:01:54;;;;;;;139.43;71.60;;;;;;;2.42;74.33;100203.73;2216963;80;32060;-63
2021/01/02 14:04:59;;;;;;;138.37;70.50;;;;;;;2.29;74.36;100209.67;2216932;80;33108;-64
2021/01/02 14:08:01;;;;;;;140.15;71.62;;;;;;;2.24;74.61;100211.52;2217031;80;37179;-63
2021/01/02 14:11:03;;;;;;;137.80;69.97;;;;;;;2.22;74.62;100206.27;2217002;80;27698;-63
2021/01/02 14:14:08;;;;;;;139.30;74.10;;;;;;;2.18;74.66;100197.95;2216991;80;28811;-64